sensor_id;sensor_type;location;lat;lon;timestamp;P1;durP1;ratioP1;P2;durP2;ratioP2
21089;SDS011;10703;51.020;6.128;2023-09-19T00:00:21;11.60;;;5.90;;
21089;SDS011;10703;51.020;6.128;2023-09-19T00:02:56;14.87;;;6.60;;
21089;SDS011;10703;51.020;6.128;2023-09-19T00:05:23;14.47;;;5.60;;
21089;SDS011;10703;51.020;6.128;2023-09-19T00:07:53;7.20;;;4.97;;
21089;SDS011;10703;51.020;6.128;2023-09-19T00:10:22;12.90;;;5.40;;
21089;SDS011;10703;51.020;6.128;2023-09-19T00:12:51;12.53;;;5.77;;
21089;SDS011;10703;51.020;6.128;2023-09-19T00:15:22;8.87;;;5.57;;
21089;SDS011;10703;51.020;6.128;2023-09-19T00:17:49;11.53;;;5.83;;
21089;SDS011;10703;51.020;6.128;2023-09-19T00:20:18;12.47;;;6.10;;
21089;SDS011;10703;51.020;6.128;2023-09-19T00:22:45;12.57;;;6.20;;
21089;SDS011;10703;51.020;6.128;2023-09-19T00:25:12;10.77;;;5.20;;
21089;SDS011;10703;51.020;6.128;2023-09-19T00:27:38;11.83;;;5.80;;
21089;SDS011;10703;51.020;6.128;2023-09-19T00:30:11;10.90;;;5.70;;
21089;SDS011;10703;51.020;6.128;2023-09-19T00:32:48;7.00;;;5.37;;
21089;SDS011;10703;51.020;6.128;2023-09-19T00:35:15;9.07;;;5.50;;
21089;SDS011;10703;51.020;6.128;2023-09-19T00:37:42;12.93;;;6.00;;
21089;SDS011;10703;51.020;6.128;2023-09-19T00:40:09;12.23;;;5.63;;
21089;SDS011;10703;51.020;6.128;2023-09-19T00:42:41;15.63;;;6.00;;
21089;SDS011;10703;51.020;6.128;2023-09-19T00:45:09;10.13;;;5.43;;
21089;SDS011;10703;51.020;6.128;2023-09-19T00:47:43;9.43;;;5.30;;
21089;SDS011;10703;51.020;6.128;2023-09-19T00:50:13;12.50;;;5.90;;
21089;SDS011;10703;51.020;6.128;2023-09-19T00:52:43;12.40;;;5.80;;
21089;SDS011;10703;51.020;6.128;2023-09-19T00:55:12;12.23;;;5.80;;
21089;SDS011;10703;51.020;6.128;2023-09-19T00:57:42;15.63;;;5.77;;
21089;SDS011;10703;51.020;6.128;2023-09-19T01:00:11;15.30;;;5.43;;
21089;SDS011;10703;51.020;6.128;2023-09-19T01:02:41;11.03;;;5.93;;
21089;SDS011;10703;51.020;6.128;2023-09-19T01:05:09;10.97;;;5.50;;
21089;SDS011;10703;51.020;6.128;2023-09-19T01:07:36;9.23;;;5.63;;
21089;SDS011;10703;51.020;6.128;2023-09-19T01:10:07;10.43;;;5.30;;
21089;SDS011;10703;51.020;6.128;2023-09-19T01:12:43;11.93;;;5.47;;
21089;SDS011;10703;51.020;6.128;2023-09-19T01:23:39;11.57;;;5.43;;
21089;SDS011;10703;51.020;6.128;2023-09-19T01:26:27;13.93;;;5.57;;
21089;SDS011;10703;51.020;6.128;2023-09-19T01:29:38;14.10;;;6.20;;
21089;SDS011;10703;51.020;6.128;2023-09-19T01:32:06;13.27;;;5.60;;
21089;SDS011;10703;51.020;6.128;2023-09-19T01:34:50;9.70;;;5.50;;
21089;SDS011;10703;51.020;6.128;2023-09-19T01:37:30;6.77;;;5.10;;
21089;SDS011;10703;51.020;6.128;2023-09-19T01:39:58;7.50;;;4.73;;
21089;SDS011;10703;51.020;6.128;2023-09-19T01:42:37;11.40;;;6.00;;
21089;SDS011;10703;51.020;6.128;2023-09-19T01:45:30;10.03;;;5.33;;
21089;SDS011;10703;51.020;6.128;2023-09-19T01:48:25;17.33;;;6.27;;
21089;SDS011;10703;51.020;6.128;2023-09-19T01:50:59;13.97;;;6.10;;
21089;SDS011;10703;51.020;6.128;2023-09-19T01:53:36;13.03;;;5.57;;
21089;SDS011;10703;51.020;6.128;2023-09-19T01:56:16;12.30;;;5.30;;
21089;SDS011;10703;51.020;6.128;2023-09-19T01:58:51;8.47;;;5.57;;
21089;SDS011;10703;51.020;6.128;2023-09-19T02:01:22;10.27;;;5.60;;
21089;SDS011;10703;51.020;6.128;2023-09-19T02:03:51;10.77;;;5.33;;
21089;SDS011;10703;51.020;6.128;2023-09-19T02:06:19;12.20;;;5.77;;
21089;SDS011;10703;51.020;6.128;2023-09-19T02:08:47;13.77;;;5.33;;
21089;SDS011;10703;51.020;6.128;2023-09-19T02:11:14;8.47;;;5.60;;
21089;SDS011;10703;51.020;6.128;2023-09-19T02:13:42;16.87;;;6.27;;
21089;SDS011;10703;51.020;6.128;2023-09-19T02:16:09;15.20;;;6.03;;
21089;SDS011;10703;51.020;6.128;2023-09-19T02:18:38;11.30;;;5.23;;
21089;SDS011;10703;51.020;6.128;2023-09-19T02:21:05;6.77;;;5.07;;
21089;SDS011;10703;51.020;6.128;2023-09-19T02:23:32;11.77;;;5.83;;
21089;SDS011;10703;51.020;6.128;2023-09-19T02:25:59;13.40;;;5.93;;
21089;SDS011;10703;51.020;6.128;2023-09-19T02:28:32;9.57;;;5.10;;
21089;SDS011;10703;51.020;6.128;2023-09-19T02:30:59;10.27;;;5.70;;
21089;SDS011;10703;51.020;6.128;2023-09-19T02:33:26;7.57;;;5.43;;
21089;SDS011;10703;51.020;6.128;2023-09-19T02:35:56;10.77;;;5.97;;
21089;SDS011;10703;51.020;6.128;2023-09-19T02:38:25;16.87;;;5.20;;
21089;SDS011;10703;51.020;6.128;2023-09-19T02:40:52;11.03;;;5.83;;
21089;SDS011;10703;51.020;6.128;2023-09-19T02:43:21;10.60;;;6.17;;
21089;SDS011;10703;51.020;6.128;2023-09-19T02:45:48;14.77;;;5.80;;
21089;SDS011;10703;51.020;6.128;2023-09-19T02:48:16;7.93;;;5.40;;
21089;SDS011;10703;51.020;6.128;2023-09-19T02:50:44;9.30;;;5.50;;
21089;SDS011;10703;51.020;6.128;2023-09-19T02:53:12;12.60;;;6.57;;
21089;SDS011;10703;51.020;6.128;2023-09-19T02:55:39;10.33;;;5.17;;
21089;SDS011;10703;51.020;6.128;2023-09-19T02:58:06;15.63;;;5.50;;
21089;SDS011;10703;51.020;6.128;2023-09-19T03:00:40;12.63;;;6.03;;
21089;SDS011;10703;51.020;6.128;2023-09-19T03:03:13;12.47;;;5.90;;
21089;SDS011;10703;51.020;6.128;2023-09-19T03:05:42;11.93;;;5.90;;
21089;SDS011;10703;51.020;6.128;2023-09-19T03:08:13;13.90;;;6.03;;
21089;SDS011;10703;51.020;6.128;2023-09-19T03:10:41;9.37;;;5.80;;
21089;SDS011;10703;51.020;6.128;2023-09-19T03:13:07;13.53;;;5.67;;
21089;SDS011;10703;51.020;6.128;2023-09-19T03:15:36;11.27;;;5.43;;
21089;SDS011;10703;51.020;6.128;2023-09-19T03:18:05;12.87;;;5.60;;
21089;SDS011;10703;51.020;6.128;2023-09-19T03:20:32;11.30;;;5.57;;
21089;SDS011;10703;51.020;6.128;2023-09-19T03:22:58;20.23;;;6.70;;
21089;SDS011;10703;51.020;6.128;2023-09-19T03:25:26;17.67;;;5.90;;
21089;SDS011;10703;51.020;6.128;2023-09-19T03:27:55;10.37;;;5.77;;
21089;SDS011;10703;51.020;6.128;2023-09-19T03:30:24;11.23;;;5.10;;
21089;SDS011;10703;51.020;6.128;2023-09-19T03:32:50;13.77;;;5.57;;
21089;SDS011;10703;51.020;6.128;2023-09-19T03:35:17;17.20;;;6.10;;
21089;SDS011;10703;51.020;6.128;2023-09-19T03:37:44;12.77;;;5.73;;
21089;SDS011;10703;51.020;6.128;2023-09-19T03:40:11;13.67;;;5.90;;
21089;SDS011;10703;51.020;6.128;2023-09-19T03:42:39;10.23;;;5.53;;
21089;SDS011;10703;51.020;6.128;2023-09-19T03:45:07;11.57;;;6.00;;
21089;SDS011;10703;51.020;6.128;2023-09-19T03:47:38;9.40;;;5.13;;
21089;SDS011;10703;51.020;6.128;2023-09-19T03:50:05;9.97;;;5.80;;
21089;SDS011;10703;51.020;6.128;2023-09-19T03:52:37;10.87;;;6.10;;
21089;SDS011;10703;51.020;6.128;2023-09-19T03:55:04;14.50;;;5.80;;
21089;SDS011;10703;51.020;6.128;2023-09-19T03:57:31;12.83;;;5.60;;
21089;SDS011;10703;51.020;6.128;2023-09-19T03:59:58;16.50;;;6.80;;
21089;SDS011;10703;51.020;6.128;2023-09-19T04:02:25;16.80;;;6.10;;
21089;SDS011;10703;51.020;6.128;2023-09-19T04:04:51;13.07;;;5.60;;
21089;SDS011;10703;51.020;6.128;2023-09-19T04:07:18;12.83;;;5.47;;
21089;SDS011;10703;51.020;6.128;2023-09-19T04:09:48;10.93;;;5.30;;
21089;SDS011;10703;51.020;6.128;2023-09-19T04:12:15;13.70;;;6.50;;
21089;SDS011;10703;51.020;6.128;2023-09-19T04:14:44;16.40;;;6.47;;
21089;SDS011;10703;51.020;6.128;2023-09-19T04:17:11;12.20;;;5.87;;
21089;SDS011;10703;51.020;6.128;2023-09-19T04:19:38;13.40;;;6.00;;
21089;SDS011;10703;51.020;6.128;2023-09-19T04:22:05;11.20;;;5.73;;
21089;SDS011;10703;51.020;6.128;2023-09-19T04:24:31;18.17;;;6.53;;
21089;SDS011;10703;51.020;6.128;2023-09-19T04:26:58;9.80;;;5.77;;
21089;SDS011;10703;51.020;6.128;2023-09-19T04:29:25;15.87;;;5.90;;
21089;SDS011;10703;51.020;6.128;2023-09-19T04:31:56;11.83;;;5.50;;
21089;SDS011;10703;51.020;6.128;2023-09-19T04:34:23;13.50;;;5.47;;
21089;SDS011;10703;51.020;6.128;2023-09-19T04:36:50;13.23;;;6.17;;
21089;SDS011;10703;51.020;6.128;2023-09-19T04:39:17;12.13;;;6.07;;
21089;SDS011;10703;51.020;6.128;2023-09-19T04:41:44;15.97;;;6.17;;
21089;SDS011;10703;51.020;6.128;2023-09-19T04:44:13;15.20;;;6.13;;
21089;SDS011;10703;51.020;6.128;2023-09-19T04:46:40;11.90;;;6.17;;
21089;SDS011;10703;51.020;6.128;2023-09-19T04:49:07;10.77;;;5.23;;
21089;SDS011;10703;51.020;6.128;2023-09-19T04:51:33;15.03;;;6.30;;
21089;SDS011;10703;51.020;6.128;2023-09-19T04:54:02;9.67;;;5.57;;
21089;SDS011;10703;51.020;6.128;2023-09-19T04:56:29;15.93;;;6.00;;
21089;SDS011;10703;51.020;6.128;2023-09-19T04:58:56;16.47;;;5.40;;
21089;SDS011;10703;51.020;6.128;2023-09-19T05:01:24;11.77;;;6.17;;
21089;SDS011;10703;51.020;6.128;2023-09-19T05:03:51;14.97;;;6.70;;
21089;SDS011;10703;51.020;6.128;2023-09-19T05:06:19;13.13;;;5.83;;
21089;SDS011;10703;51.020;6.128;2023-09-19T05:08:49;16.70;;;6.90;;
21089;SDS011;10703;51.020;6.128;2023-09-19T05:11:18;7.10;;;5.10;;
21089;SDS011;10703;51.020;6.128;2023-09-19T05:13:49;11.47;;;4.93;;
21089;SDS011;10703;51.020;6.128;2023-09-19T05:16:19;6.97;;;4.60;;
21089;SDS011;10703;51.020;6.128;2023-09-19T05:18:46;11.07;;;4.73;;
21089;SDS011;10703;51.020;6.128;2023-09-19T05:21:13;10.43;;;5.30;;
21089;SDS011;10703;51.020;6.128;2023-09-19T05:23:40;6.53;;;5.17;;
21089;SDS011;10703;51.020;6.128;2023-09-19T05:26:08;12.07;;;5.37;;
21089;SDS011;10703;51.020;6.128;2023-09-19T05:28:35;10.53;;;5.30;;
21089;SDS011;10703;51.020;6.128;2023-09-19T05:31:01;11.57;;;5.30;;
21089;SDS011;10703;51.020;6.128;2023-09-19T05:33:28;9.40;;;5.17;;
21089;SDS011;10703;51.020;6.128;2023-09-19T05:35:57;9.60;;;5.23;;
21089;SDS011;10703;51.020;6.128;2023-09-19T05:38:24;10.30;;;5.40;;
21089;SDS011;10703;51.020;6.128;2023-09-19T05:40:52;9.87;;;5.37;;
21089;SDS011;10703;51.020;6.128;2023-09-19T05:43:20;7.73;;;4.97;;
21089;SDS011;10703;51.020;6.128;2023-09-19T05:45:47;8.37;;;5.53;;
21089;SDS011;10703;51.020;6.128;2023-09-19T05:48:14;8.53;;;5.30;;
21089;SDS011;10703;51.020;6.128;2023-09-19T05:50:43;12.07;;;5.33;;
21089;SDS011;10703;51.020;6.128;2023-09-19T05:53:12;13.30;;;5.57;;
21089;SDS011;10703;51.020;6.128;2023-09-19T05:55:41;12.17;;;5.50;;
21089;SDS011;10703;51.020;6.128;2023-09-19T05:58:07;11.53;;;5.20;;
21089;SDS011;10703;51.020;6.128;2023-09-19T06:00:36;10.83;;;5.60;;
21089;SDS011;10703;51.020;6.128;2023-09-19T06:03:05;10.03;;;5.30;;
21089;SDS011;10703;51.020;6.128;2023-09-19T06:05:32;12.73;;;5.97;;
21089;SDS011;10703;51.020;6.128;2023-09-19T06:07:59;8.10;;;5.27;;
21089;SDS011;10703;51.020;6.128;2023-09-19T06:10:26;14.73;;;5.93;;
21089;SDS011;10703;51.020;6.128;2023-09-19T06:12:58;8.73;;;5.70;;
21089;SDS011;10703;51.020;6.128;2023-09-19T06:15:25;14.70;;;5.67;;
21089;SDS011;10703;51.020;6.128;2023-09-19T06:17:53;13.77;;;5.93;;
21089;SDS011;10703;51.020;6.128;2023-09-19T06:20:24;12.07;;;5.43;;
21089;SDS011;10703;51.020;6.128;2023-09-19T06:22:52;11.13;;;5.13;;
21089;SDS011;10703;51.020;6.128;2023-09-19T06:25:20;8.37;;;4.60;;
21089;SDS011;10703;51.020;6.128;2023-09-19T06:27:49;11.45;;;6.18;;
21089;SDS011;10703;51.020;6.128;2023-09-19T06:30:21;8.37;;;5.27;;
21089;SDS011;10703;51.020;6.128;2023-09-19T06:32:55;8.93;;;5.43;;
21089;SDS011;10703;51.020;6.128;2023-09-19T06:35:23;10.43;;;5.57;;
21089;SDS011;10703;51.020;6.128;2023-09-19T06:37:52;9.33;;;5.33;;
21089;SDS011;10703;51.020;6.128;2023-09-19T06:40:18;12.37;;;5.27;;
21089;SDS011;10703;51.020;6.128;2023-09-19T06:42:46;10.83;;;5.50;;
21089;SDS011;10703;51.020;6.128;2023-09-19T06:45:16;14.17;;;5.30;;
21089;SDS011;10703;51.020;6.128;2023-09-19T06:47:46;14.50;;;6.07;;
21089;SDS011;10703;51.020;6.128;2023-09-19T06:50:17;8.40;;;5.43;;
21089;SDS011;10703;51.020;6.128;2023-09-19T06:52:46;8.70;;;5.00;;
21089;SDS011;10703;51.020;6.128;2023-09-19T06:55:20;10.67;;;5.60;;
21089;SDS011;10703;51.020;6.128;2023-09-19T06:57:51;9.47;;;5.57;;
21089;SDS011;10703;51.020;6.128;2023-09-19T07:00:18;8.93;;;4.70;;
21089;SDS011;10703;51.020;6.128;2023-09-19T07:02:54;9.97;;;5.20;;
21089;SDS011;10703;51.020;6.128;2023-09-19T07:05:27;5.87;;;5.30;;
21089;SDS011;10703;51.020;6.128;2023-09-19T07:07:54;10.07;;;5.33;;
21089;SDS011;10703;51.020;6.128;2023-09-19T07:10:22;5.93;;;5.10;;
21089;SDS011;10703;51.020;6.128;2023-09-19T07:12:54;11.93;;;5.13;;
21089;SDS011;10703;51.020;6.128;2023-09-19T07:15:25;8.37;;;5.10;;
21089;SDS011;10703;51.020;6.128;2023-09-19T07:17:53;9.13;;;5.10;;
21089;SDS011;10703;51.020;6.128;2023-09-19T07:20:22;12.93;;;5.90;;
21089;SDS011;10703;51.020;6.128;2023-09-19T07:22:54;12.37;;;6.00;;
21089;SDS011;10703;51.020;6.128;2023-09-19T07:25:21;16.03;;;5.53;;
21089;SDS011;10703;51.020;6.128;2023-09-19T07:27:49;8.33;;;4.53;;
21089;SDS011;10703;51.020;6.128;2023-09-19T07:30:17;9.07;;;5.13;;
21089;SDS011;10703;51.020;6.128;2023-09-19T07:32:44;17.27;;;5.30;;
21089;SDS011;10703;51.020;6.128;2023-09-19T07:35:10;5.77;;;4.33;;
21089;SDS011;10703;51.020;6.128;2023-09-19T07:37:38;8.10;;;4.40;;
21089;SDS011;10703;51.020;6.128;2023-09-19T07:40:05;14.57;;;5.33;;
21089;SDS011;10703;51.020;6.128;2023-09-19T07:42:38;10.67;;;5.00;;
21089;SDS011;10703;51.020;6.128;2023-09-19T07:45:07;9.47;;;4.87;;
21089;SDS011;10703;51.020;6.128;2023-09-19T07:47:35;13.23;;;4.97;;
21089;SDS011;10703;51.020;6.128;2023-09-19T07:50:02;13.60;;;5.13;;
21089;SDS011;10703;51.020;6.128;2023-09-19T07:52:29;19.53;;;5.00;;
21089;SDS011;10703;51.020;6.128;2023-09-19T07:54:56;14.80;;;4.53;;
21089;SDS011;10703;51.020;6.128;2023-09-19T07:57:23;9.17;;;5.17;;
21089;SDS011;10703;51.020;6.128;2023-09-19T07:59:50;17.97;;;5.20;;
21089;SDS011;10703;51.020;6.128;2023-09-19T08:02:17;7.77;;;4.87;;
21089;SDS011;10703;51.020;6.128;2023-09-19T08:04:44;7.07;;;4.37;;
21089;SDS011;10703;51.020;6.128;2023-09-19T08:07:12;9.53;;;5.60;;
21089;SDS011;10703;51.020;6.128;2023-09-19T08:09:39;9.10;;;4.77;;
21089;SDS011;10703;51.020;6.128;2023-09-19T08:12:06;7.67;;;4.47;;
21089;SDS011;10703;51.020;6.128;2023-09-19T08:14:37;10.13;;;4.70;;
21089;SDS011;10703;51.020;6.128;2023-09-19T08:17:07;6.53;;;4.63;;
21089;SDS011;10703;51.020;6.128;2023-09-19T08:19:34;9.13;;;5.07;;
21089;SDS011;10703;51.020;6.128;2023-09-19T08:22:02;8.67;;;4.10;;
21089;SDS011;10703;51.020;6.128;2023-09-19T08:24:29;6.77;;;4.10;;
21089;SDS011;10703;51.020;6.128;2023-09-19T08:26:57;12.60;;;4.93;;
21089;SDS011;10703;51.020;6.128;2023-09-19T08:29:24;11.60;;;4.50;;
21089;SDS011;10703;51.020;6.128;2023-09-19T08:31:54;16.90;;;4.90;;
21089;SDS011;10703;51.020;6.128;2023-09-19T08:34:22;9.53;;;4.90;;
21089;SDS011;10703;51.020;6.128;2023-09-19T08:36:54;11.50;;;4.63;;
21089;SDS011;10703;51.020;6.128;2023-09-19T08:39:26;10.10;;;4.40;;
21089;SDS011;10703;51.020;6.128;2023-09-19T08:42:00;10.13;;;3.97;;
21089;SDS011;10703;51.020;6.128;2023-09-19T08:44:28;5.33;;;3.87;;
21089;SDS011;10703;51.020;6.128;2023-09-19T08:47:04;7.23;;;4.43;;
21089;SDS011;10703;51.020;6.128;2023-09-19T08:52:27;9.20;;;4.67;;
21089;SDS011;10703;51.020;6.128;2023-09-19T08:55:01;5.43;;;3.70;;
21089;SDS011;10703;51.020;6.128;2023-09-19T08:57:34;5.07;;;4.40;;
21089;SDS011;10703;51.020;6.128;2023-09-19T09:00:07;4.60;;;4.20;;
21089;SDS011;10703;51.020;6.128;2023-09-19T09:02:38;5.43;;;4.10;;
21089;SDS011;10703;51.020;6.128;2023-09-19T09:05:10;7.50;;;4.10;;
21089;SDS011;10703;51.020;6.128;2023-09-19T09:07:37;5.43;;;4.03;;
21089;SDS011;10703;51.020;6.128;2023-09-19T09:10:05;8.47;;;5.27;;
21089;SDS011;10703;51.020;6.128;2023-09-19T09:12:33;6.70;;;4.17;;
21089;SDS011;10703;51.020;6.128;2023-09-19T09:15:02;10.23;;;4.70;;
21089;SDS011;10703;51.020;6.128;2023-09-19T09:17:30;9.43;;;4.20;;
21089;SDS011;10703;51.020;6.128;2023-09-19T09:19:57;8.40;;;4.80;;
21089;SDS011;10703;51.020;6.128;2023-09-19T09:22:23;9.47;;;4.30;;
21089;SDS011;10703;51.020;6.128;2023-09-19T09:24:52;4.47;;;4.00;;
21089;SDS011;10703;51.020;6.128;2023-09-19T09:27:29;9.00;;;4.57;;
21089;SDS011;10703;51.020;6.128;2023-09-19T09:29:58;7.70;;;4.50;;
21089;SDS011;10703;51.020;6.128;2023-09-19T09:32:29;9.33;;;4.30;;
21089;SDS011;10703;51.020;6.128;2023-09-19T09:35:01;5.33;;;3.73;;
21089;SDS011;10703;51.020;6.128;2023-09-19T09:37:35;6.63;;;4.13;;
21089;SDS011;10703;51.020;6.128;2023-09-19T09:40:04;5.70;;;4.00;;
21089;SDS011;10703;51.020;6.128;2023-09-19T09:42:46;7.30;;;4.63;;
21089;SDS011;10703;51.020;6.128;2023-09-19T09:45:16;9.10;;;4.30;;
21089;SDS011;10703;51.020;6.128;2023-09-19T09:47:48;9.03;;;4.33;;
21089;SDS011;10703;51.020;6.128;2023-09-19T09:50:31;6.00;;;4.40;;
21089;SDS011;10703;51.020;6.128;2023-09-19T09:53:07;7.80;;;4.30;;
21089;SDS011;10703;51.020;6.128;2023-09-19T09:55:57;8.73;;;4.90;;
21089;SDS011;10703;51.020;6.128;2023-09-19T09:58:34;7.70;;;4.47;;
21089;SDS011;10703;51.020;6.128;2023-09-19T10:01:15;8.83;;;4.40;;
21089;SDS011;10703;51.020;6.128;2023-09-19T10:03:43;7.47;;;4.33;;
21089;SDS011;10703;51.020;6.128;2023-09-19T10:06:14;7.20;;;4.10;;
21089;SDS011;10703;51.020;6.128;2023-09-19T10:09:08;5.97;;;3.93;;
21089;SDS011;10703;51.020;6.128;2023-09-19T10:11:47;8.43;;;4.60;;
21089;SDS011;10703;51.020;6.128;2023-09-19T10:14:25;6.73;;;4.47;;
21089;SDS011;10703;51.020;6.128;2023-09-19T10:16:59;8.33;;;4.40;;
21089;SDS011;10703;51.020;6.128;2023-09-19T10:19:33;5.57;;;4.33;;
21089;SDS011;10703;51.020;6.128;2023-09-19T10:22:04;7.10;;;4.00;;
21089;SDS011;10703;51.020;6.128;2023-09-19T10:24:33;6.57;;;4.70;;
21089;SDS011;10703;51.020;6.128;2023-09-19T10:27:06;4.93;;;4.33;;
21089;SDS011;10703;51.020;6.128;2023-09-19T10:29:35;7.07;;;4.40;;
21089;SDS011;10703;51.020;6.128;2023-09-19T10:32:05;6.37;;;4.87;;
21089;SDS011;10703;51.020;6.128;2023-09-19T10:34:35;6.97;;;4.53;;
21089;SDS011;10703;51.020;6.128;2023-09-19T10:37:02;8.70;;;4.30;;
21089;SDS011;10703;51.020;6.128;2023-09-19T10:39:32;6.40;;;4.17;;
21089;SDS011;10703;51.020;6.128;2023-09-19T10:42:02;6.17;;;4.33;;
21089;SDS011;10703;51.020;6.128;2023-09-19T10:44:32;8.77;;;4.27;;
21089;SDS011;10703;51.020;6.128;2023-09-19T10:46:59;9.37;;;4.83;;
21089;SDS011;10703;51.020;6.128;2023-09-19T10:49:26;8.70;;;4.30;;
21089;SDS011;10703;51.020;6.128;2023-09-19T10:51:54;6.20;;;4.00;;
21089;SDS011;10703;51.020;6.128;2023-09-19T10:54:25;7.83;;;4.23;;
21089;SDS011;10703;51.020;6.128;2023-09-19T10:56:55;9.83;;;4.27;;
21089;SDS011;10703;51.020;6.128;2023-09-19T10:59:24;6.20;;;4.90;;
21089;SDS011;10703;51.020;6.128;2023-09-19T11:01:52;7.43;;;4.30;;
21089;SDS011;10703;51.020;6.128;2023-09-19T11:04:30;7.97;;;4.23;;
21089;SDS011;10703;51.020;6.128;2023-09-19T11:07:14;6.53;;;4.00;;
21089;SDS011;10703;51.020;6.128;2023-09-19T11:09:48;11.07;;;4.00;;
21089;SDS011;10703;51.020;6.128;2023-09-19T11:15:02;4.60;;;4.03;;
21089;SDS011;10703;51.020;6.128;2023-09-19T11:17:39;4.10;;;3.77;;
21089;SDS011;10703;51.020;6.128;2023-09-19T11:30:34;4.97;;;3.72;;
21089;SDS011;10703;51.020;6.128;2023-09-19T11:33:15;6.40;;;4.47;;
21089;SDS011;10703;51.020;6.128;2023-09-19T11:36:04;4.13;;;3.67;;
21089;SDS011;10703;51.020;6.128;2023-09-19T11:43:47;6.97;;;3.70;;
21089;SDS011;10703;51.020;6.128;2023-09-19T11:46:19;4.60;;;3.72;;
21089;SDS011;10703;51.020;6.128;2023-09-19T11:48:48;4.80;;;3.40;;
21089;SDS011;10703;51.020;6.128;2023-09-19T11:51:16;5.95;;;3.97;;
21089;SDS011;10703;51.020;6.128;2023-09-19T11:53:53;4.85;;;3.53;;
21089;SDS011;10703;51.020;6.128;2023-09-19T11:56:23;5.22;;;3.75;;
21089;SDS011;10703;51.020;6.128;2023-09-19T11:58:53;6.32;;;3.80;;
21089;SDS011;10703;51.020;6.128;2023-09-19T12:01:31;6.70;;;4.00;;
21089;SDS011;10703;51.020;6.128;2023-09-19T12:04:01;5.32;;;3.60;;
21089;SDS011;10703;51.020;6.128;2023-09-19T12:06:31;5.72;;;3.90;;
21089;SDS011;10703;51.020;6.128;2023-09-19T12:09:01;7.80;;;3.80;;
21089;SDS011;10703;51.020;6.128;2023-09-19T12:11:33;5.32;;;3.50;;
21089;SDS011;10703;51.020;6.128;2023-09-19T12:14:09;6.38;;;3.80;;
21089;SDS011;10703;51.020;6.128;2023-09-19T12:16:36;4.38;;;3.30;;
21089;SDS011;10703;51.020;6.128;2023-09-19T12:19:20;6.30;;;3.50;;
21089;SDS011;10703;51.020;6.128;2023-09-19T12:21:55;6.85;;;3.63;;
21089;SDS011;10703;51.020;6.128;2023-09-19T12:24:32;4.88;;;3.50;;
21089;SDS011;10703;51.020;6.128;2023-09-19T12:27:02;7.05;;;3.50;;
21089;SDS011;10703;51.020;6.128;2023-09-19T12:29:32;5.85;;;3.35;;
21089;SDS011;10703;51.020;6.128;2023-09-19T12:32:33;6.25;;;3.30;;
21089;SDS011;10703;51.020;6.128;2023-09-19T12:35:00;9.05;;;3.20;;
21089;SDS011;10703;51.020;6.128;2023-09-19T12:37:33;4.00;;;3.40;;
21089;SDS011;10703;51.020;6.128;2023-09-19T12:40:06;8.07;;;3.45;;
21089;SDS011;10703;51.020;6.128;2023-09-19T12:42:56;12.55;;;3.75;;
21089;SDS011;10703;51.020;6.128;2023-09-19T12:45:24;6.90;;;3.40;;
21089;SDS011;10703;51.020;6.128;2023-09-19T12:51:07;6.95;;;3.72;;
21089;SDS011;10703;51.020;6.128;2023-09-19T12:53:41;5.88;;;3.38;;
21089;SDS011;10703;51.020;6.128;2023-09-19T12:56:12;3.95;;;3.20;;
21089;SDS011;10703;51.020;6.128;2023-09-19T12:58:48;6.60;;;3.42;;
21089;SDS011;10703;51.020;6.128;2023-09-19T13:01:16;5.15;;;3.60;;
21089;SDS011;10703;51.020;6.128;2023-09-19T13:03:43;3.58;;;3.28;;
21089;SDS011;10703;51.020;6.128;2023-09-19T13:06:10;6.53;;;3.45;;
21089;SDS011;10703;51.020;6.128;2023-09-19T13:08:38;3.40;;;3.10;;
21089;SDS011;10703;51.020;6.128;2023-09-19T13:11:12;6.05;;;3.50;;
21089;SDS011;10703;51.020;6.128;2023-09-19T13:13:47;5.25;;;3.30;;
21089;SDS011;10703;51.020;6.128;2023-09-19T13:16:20;6.75;;;3.40;;
21089;SDS011;10703;51.020;6.128;2023-09-19T13:18:52;4.47;;;3.47;;
21089;SDS011;10703;51.020;6.128;2023-09-19T13:21:32;3.28;;;3.08;;
21089;SDS011;10703;51.020;6.128;2023-09-19T13:24:20;3.75;;;3.40;;
21089;SDS011;10703;51.020;6.128;2023-09-19T13:26:49;4.85;;;3.22;;
21089;SDS011;10703;51.020;6.128;2023-09-19T13:29:16;5.80;;;3.40;;
21089;SDS011;10703;51.020;6.128;2023-09-19T13:31:48;6.22;;;3.53;;
21089;SDS011;10703;51.020;6.128;2023-09-19T13:34:16;4.45;;;3.42;;
21089;SDS011;10703;51.020;6.128;2023-09-19T13:36:43;3.35;;;3.05;;
21089;SDS011;10703;51.020;6.128;2023-09-19T13:39:10;3.20;;;3.00;;
21089;SDS011;10703;51.020;6.128;2023-09-19T13:41:39;4.07;;;3.50;;
21089;SDS011;10703;51.020;6.128;2023-09-19T13:44:05;3.47;;;3.28;;
21089;SDS011;10703;51.020;6.128;2023-09-19T13:46:32;3.20;;;2.90;;
21089;SDS011;10703;51.020;6.128;2023-09-19T13:49:01;3.83;;;3.40;;
21089;SDS011;10703;51.020;6.128;2023-09-19T13:51:32;3.60;;;3.30;;
21089;SDS011;10703;51.020;6.128;2023-09-19T13:53:59;6.05;;;3.58;;
21089;SDS011;10703;51.020;6.128;2023-09-19T13:56:26;3.53;;;3.22;;
21089;SDS011;10703;51.020;6.128;2023-09-19T13:58:57;3.25;;;3.00;;
21089;SDS011;10703;51.020;6.128;2023-09-19T14:01:23;3.35;;;3.15;;
21089;SDS011;10703;51.020;6.128;2023-09-19T14:03:52;3.67;;;3.30;;
21089;SDS011;10703;51.020;6.128;2023-09-19T14:06:20;3.30;;;3.00;;
21089;SDS011;10703;51.020;6.128;2023-09-19T14:08:47;5.35;;;3.58;;
21089;SDS011;10703;51.020;6.128;2023-09-19T14:11:14;3.72;;;3.40;;
21089;SDS011;10703;51.020;6.128;2023-09-19T14:13:42;3.78;;;3.33;;
21089;SDS011;10703;51.020;6.128;2023-09-19T14:16:15;3.33;;;3.07;;
21089;SDS011;10703;51.020;6.128;2023-09-19T14:18:44;5.07;;;3.30;;
21089;SDS011;10703;51.020;6.128;2023-09-19T14:21:12;4.23;;;3.30;;
21089;SDS011;10703;51.020;6.128;2023-09-19T14:23:39;5.53;;;3.30;;
21089;SDS011;10703;51.020;6.128;2023-09-19T14:26:08;3.87;;;3.50;;
21089;SDS011;10703;51.020;6.128;2023-09-19T14:28:35;6.03;;;3.73;;
21089;SDS011;10703;51.020;6.128;2023-09-19T14:31:06;4.40;;;3.40;;
21089;SDS011;10703;51.020;6.128;2023-09-19T14:33:36;3.93;;;3.63;;
21089;SDS011;10703;51.020;6.128;2023-09-19T14:36:04;3.53;;;3.23;;
21089;SDS011;10703;51.020;6.128;2023-09-19T14:38:35;3.50;;;3.20;;
21089;SDS011;10703;51.020;6.128;2023-09-19T14:41:04;3.17;;;2.90;;
21089;SDS011;10703;51.020;6.128;2023-09-19T14:43:31;3.78;;;3.33;;
21089;SDS011;10703;51.020;6.128;2023-09-19T14:46:02;3.90;;;3.50;;
21089;SDS011;10703;51.020;6.128;2023-09-19T14:48:36;3.40;;;3.20;;
21089;SDS011;10703;51.020;6.128;2023-09-19T14:51:04;3.65;;;3.33;;
21089;SDS011;10703;51.020;6.128;2023-09-19T14:53:31;3.80;;;3.45;;
21089;SDS011;10703;51.020;6.128;2023-09-19T14:56:02;5.40;;;3.30;;
21089;SDS011;10703;51.020;6.128;2023-09-19T14:58:30;4.20;;;3.50;;
21089;SDS011;10703;51.020;6.128;2023-09-19T15:03:34;3.70;;;3.50;;
21089;SDS011;10703;51.020;6.128;2023-09-19T15:06:06;4.50;;;3.33;;
21089;SDS011;10703;51.020;6.128;2023-09-19T15:08:35;6.33;;;3.80;;
21089;SDS011;10703;51.020;6.128;2023-09-19T15:11:05;3.47;;;3.13;;
21089;SDS011;10703;51.020;6.128;2023-09-19T15:13:33;3.60;;;3.40;;
21089;SDS011;10703;51.020;6.128;2023-09-19T15:16:00;4.73;;;3.27;;
21089;SDS011;10703;51.020;6.128;2023-09-19T15:18:28;3.33;;;3.13;;
21089;SDS011;10703;51.020;6.128;2023-09-19T15:21:17;4.00;;;3.60;;
21089;SDS011;10703;51.020;6.128;2023-09-19T15:23:45;4.10;;;3.80;;
21089;SDS011;10703;51.020;6.128;2023-09-19T15:26:13;3.57;;;3.37;;
21089;SDS011;10703;51.020;6.128;2023-09-19T15:28:43;3.83;;;3.40;;
21089;SDS011;10703;51.020;6.128;2023-09-19T15:31:11;4.77;;;3.77;;
21089;SDS011;10703;51.020;6.128;2023-09-19T15:33:39;3.50;;;3.30;;
21089;SDS011;10703;51.020;6.128;2023-09-19T15:41:26;3.75;;;3.47;;